Time;durP1;ratioP1;P1;durP2;ratioP2;P2;SDS_P1;SDS_P2;PMS_P1;PMS_P2;Temp;Humidity;BMP_temperature;BMP_pressure;BME280_temperature;BME280_humidity;BME280_pressure;Samples;Min_cycle;Max_cycle;Signal;HPM_P1;HPM_P2
2022/04/10 00:00:14;;;;;;;2.17;1.47;;;;;;;;;;5078821;28;20221;-67
2022/04/10 00:02:42;;;;;;;1.47;1.10;;;;;;;;;;5085487;28;20720;-68
2022/04/10 00:05:09;;;;;;;1.60;1.50;;;;;;;;;;5090610;28;20219;-68
2022/04/10 00:07:37;;;;;;;1.83;1.57;;;;;;;;;;5080585;28;20577;-68
2022/04/10 00:10:04;;;;;;;2.23;1.30;;;;;;;;;;5068585;28;20315;-67
2022/04/10 00:12:34;;;;;;;2.33;1.63;;;;;;;;;;5065542;28;20209;-67
2022/04/10 00:15:03;;;;;;;1.50;1.40;;;;;;;;;;5068229;28;20228;-68
2022/04/10 00:17:30;;;;;;;2.03;1.40;;;;;;;;;;5055110;28;20220;-67
2022/04/10 00:19:57;;;;;;;2.73;2.23;;;;;;;;;;5089115;28;20189;-67
2022/04/10 00:22:25;;;;;;;1.73;1.60;;;;;;;;;;5071005;28;20518;-68
2022/04/10 00:24:52;;;;;;;1.57;1.30;;;;;;;;;;5064596;28;20229;-69
2022/04/10 00:27:19;;;;;;;2.10;1.47;;;;;;;;;;5073545;28;20193;-68
2022/04/10 00:29:46;;;;;;;1.60;1.50;;;;;;;;;;5082474;28;20923;-68
2022/04/10 00:32:16;;;;;;;1.83;1.40;;;;;;;;;;5069690;28;20190;-68
2022/04/10 00:34:43;;;;;;;1.97;1.70;;;;;;;;;;5069422;28;20214;-67
2022/04/10 00:37:11;;;;;;;1.50;1.37;;;;;;;;;;5061119;28;20241;-68
2022/04/10 00:39:38;;;;;;;1.83;1.67;;;;;;;;;;5066580;28;20885;-67
2022/04/10 00:42:05;;;;;;;1.90;1.30;;;;;;;;;;5068168;28;20202;-68
2022/04/10 00:44:34;;;;;;;1.60;1.20;;;;;;;;;;5067029;28;20197;-68
2022/04/10 00:47:02;;;;;;;1.60;1.30;;;;;;;;;;5067194;28;20555;-68
2022/04/10 00:49:29;;;;;;;1.37;1.10;;;;;;;;;;5043774;28;20287;-68
2022/04/10 00:51:56;;;;;;;2.43;1.60;;;;;;;;;;5068083;28;20251;-68
2022/04/10 00:54:30;;;;;;;1.80;1.30;;;;;;;;;;5067467;28;20197;-68
2022/04/10 00:56:59;;;;;;;2.23;1.70;;;;;;;;;;5067627;28;20213;-68
2022/04/10 00:59:27;;;;;;;1.40;1.30;;;;;;;;;;5066976;28;20186;-68
2022/04/10 01:01:54;;;;;;;1.80;1.47;;;;;;;;;;5062403;28;20263;-67
2022/04/10 01:04:39;;;;;;;2.20;1.60;;;;;;;;;;5067649;28;20205;-67
2022/04/10 01:07:06;;;;;;;2.00;1.50;;;;;;;;;;5067614;28;20197;-68
2022/04/10 01:09:34;;;;;;;2.20;1.50;;;;;;;;;;5074720;28;20202;-66
2022/04/10 01:12:01;;;;;;;2.67;1.90;;;;;;;;;;5063593;28;20225;-67
2022/04/10 01:14:28;;;;;;;2.40;1.40;;;;;;;;;;5067048;28;20194;-67
2022/04/10 01:16:56;;;;;;;1.70;1.30;;;;;;;;;;5067040;28;20228;-67
2022/04/10 01:19:23;;;;;;;2.23;1.70;;;;;;;;;;5075905;28;20205;-68
2022/04/10 01:21:51;;;;;;;2.07;1.90;;;;;;;;;;5058964;28;20282;-68
2022/04/10 01:24:19;;;;;;;2.17;1.70;;;;;;;;;;5079412;28;20217;-67
2022/04/10 01:26:47;;;;;;;1.80;1.70;;;;;;;;;;5076863;28;20236;-68
2022/04/10 01:29:14;;;;;;;2.60;1.77;;;;;;;;;;5063682;28;20194;-67
2022/04/10 01:31:45;;;;;;;1.70;1.50;;;;;;;;;;5063437;28;20212;-68
2022/04/10 01:34:14;;;;;;;2.23;1.53;;;;;;;;;;5081242;28;20212;-68
2022/04/10 01:36:41;;;;;;;2.13;1.30;;;;;;;;;;5074489;28;20221;-68
2022/04/10 01:39:09;;;;;;;2.10;1.80;;;;;;;;;;5067212;28;20194;-68
2022/04/10 01:41:37;;;;;;;2.40;1.50;;;;;;;;;;5064496;28;20206;-68
2022/04/10 01:44:05;;;;;;;2.33;1.67;;;;;;;;;;5078554;28;20740;-67
2022/04/10 01:46:33;;;;;;;2.73;2.03;;;;;;;;;;5087078;28;20814;-67
2022/04/10 01:49:01;;;;;;;2.03;1.83;;;;;;;;;;5065026;28;20236;-67
2022/04/10 01:51:28;;;;;;;2.73;1.70;;;;;;;;;;5065225;28;20187;-68
2022/04/10 01:53:55;;;;;;;2.43;1.80;;;;;;;;;;5065023;28;20201;-67
2022/04/10 01:56:23;;;;;;;2.00;1.70;;;;;;;;;;5048917;28;20248;-68
2022/04/10 01:58:52;;;;;;;1.80;1.63;;;;;;;;;;5066961;28;20254;-67
2022/04/10 02:01:19;;;;;;;3.33;2.17;;;;;;;;;;5062514;28;20266;-68
2022/04/10 02:03:47;;;;;;;1.70;1.30;;;;;;;;;;5063897;28;20673;-67
2022/04/10 02:06:15;;;;;;;2.23;1.70;;;;;;;;;;5066493;28;20209;-67
2022/04/10 02:08:42;;;;;;;2.17;1.53;;;;;;;;;;5066488;28;20216;-68
2022/04/10 02:11:14;;;;;;;2.83;1.90;;;;;;;;;;5066155;28;20197;-67
2022/04/10 02:13:42;;;;;;;2.27;1.63;;;;;;;;;;5060020;28;20225;-67
2022/04/10 02:16:13;;;;;;;1.87;1.73;;;;;;;;;;5066093;28;20209;-68
2022/04/10 02:18:40;;;;;;;2.60;1.83;;;;;;;;;;5057254;28;20278;-68
2022/04/10 02:21:08;;;;;;;1.50;1.40;;;;;;;;;;5059912;28;20189;-68
2022/04/10 02:23:35;;;;;;;2.60;1.60;;;;;;;;;;5058568;28;20228;-68
2022/04/10 02:26:02;;;;;;;1.73;1.60;;;;;;;;;;5061694;28;20194;-68
2022/04/10 02:28:30;;;;;;;1.87;1.40;;;;;;;;;;5065567;28;20229;-68
2022/04/10 02:30:57;;;;;;;2.63;2.07;;;;;;;;;;5067249;28;20232;-68
2022/04/10 02:33:24;;;;;;;1.83;1.27;;;;;;;;;;5064576;28;20241;-68
2022/04/10 02:35:52;;;;;;;1.90;1.70;;;;;;;;;;5045121;28;20397;-68
2022/04/10 02:38:19;;;;;;;3.00;1.63;;;;;;;;;;5060998;28;20263;-67
2022/04/10 02:40:46;;;;;;;2.63;1.73;;;;;;;;;;5065778;28;20603;-68
2022/04/10 02:43:14;;;;;;;2.60;1.70;;;;;;;;;;5066596;28;20193;-68
2022/04/10 02:45:42;;;;;;;2.73;1.93;;;;;;;;;;5067483;28;20201;-66
2022/04/10 02:48:10;;;;;;;2.03;1.47;;;;;;;;;;5065747;28;20248;-68
2022/04/10 02:50:43;;;;;;;2.50;1.73;;;;;;;;;;5051020;28;20317;-68
2022/04/10 02:53:13;;;;;;;2.57;1.57;;;;;;;;;;5069982;28;20198;-68
2022/04/10 02:55:43;;;;;;;2.27;1.57;;;;;;;;;;5067385;28;20197;-68
2022/04/10 02:58:10;;;;;;;1.97;1.67;;;;;;;;;;5069899;28;20301;-68
2022/04/10 03:00:37;;;;;;;2.23;1.80;;;;;;;;;;5065371;28;20210;-68
2022/04/10 03:03:04;;;;;;;2.83;2.03;;;;;;;;;;5069133;28;20237;-68
2022/04/10 03:05:32;;;;;;;2.60;1.37;;;;;;;;;;5066794;28;20605;-69
2022/04/10 03:08:00;;;;;;;2.10;1.47;;;;;;;;;;5069261;28;20208;-68
2022/04/10 03:10:27;;;;;;;1.93;1.70;;;;;;;;;;5038195;28;20583;-68
2022/04/10 03:12:54;;;;;;;2.53;1.47;;;;;;;;;;5065745;28;20587;-67
2022/04/10 03:15:21;;;;;;;1.73;1.50;;;;;;;;;;5068846;28;20190;-68
2022/04/10 03:17:48;;;;;;;2.07;1.40;;;;;;;;;;5067046;28;20532;-67
2022/04/10 03:20:16;;;;;;;2.63;1.50;;;;;;;;;;5077266;28;20197;-67
2022/04/10 03:22:43;;;;;;;2.00;1.30;;;;;;;;;;5068598;28;20205;-67
2022/04/10 03:25:10;;;;;;;2.17;1.43;;;;;;;;;;5064929;28;20205;-67
2022/04/10 03:27:38;;;;;;;2.27;1.90;;;;;;;;;;5067181;28;20206;-67
2022/04/10 03:30:05;;;;;;;2.10;1.80;;;;;;;;;;5069325;28;20213;-67
2022/04/10 03:32:32;;;;;;;3.87;2.13;;;;;;;;;;5068617;28;20202;-68
2022/04/10 03:35:00;;;;;;;2.33;1.77;;;;;;;;;;5068619;28;20661;-67
2022/04/10 03:37:27;;;;;;;2.03;1.60;;;;;;;;;;5064057;28;20241;-67
2022/04/10 03:39:54;;;;;;;2.13;1.60;;;;;;;;;;5077462;28;20246;-67
2022/04/10 03:42:21;;;;;;;1.57;1.27;;;;;;;;;;5071622;28;20190;-67
2022/04/10 03:44:48;;;;;;;2.23;1.60;;;;;;;;;;5068448;28;20663;-68
2022/04/10 03:47:15;;;;;;;1.50;1.40;;;;;;;;;;5050715;28;20247;-68
2022/04/10 03:49:43;;;;;;;2.50;2.07;;;;;;;;;;5061845;28;20693;-68
2022/04/10 03:52:10;;;;;;;1.90;1.57;;;;;;;;;;5069022;28;20259;-67
2022/04/10 03:54:37;;;;;;;2.17;1.60;;;;;;;;;;5068368;28;20208;-68
2022/04/10 03:57:05;;;;;;;3.40;1.67;;;;;;;;;;5067478;28;20263;-68
2022/04/10 03:59:32;;;;;;;2.30;1.70;;;;;;;;;;5061663;28;20190;-68
2022/04/10 04:01:59;;;;;;;2.80;1.70;;;;;;;;;;5032556;28;20676;-68
2022/04/10 04:04:27;;;;;;;1.77;1.40;;;;;;;;;;5069006;28;20195;-68
2022/04/10 04:06:54;;;;;;;2.43;1.40;;;;;;;;;;5088354;28;20205;-67
2022/04/10 04:09:21;;;;;;;1.77;1.40;;;;;;;;;;5088044;28;20212;-67
2022/04/10 04:11:48;;;;;;;2.30;1.50;;;;;;;;;;5056182;28;20630;-68
2022/04/10 04:14:15;;;;;;;2.07;1.70;;;;;;;;;;5031042;28;20222;-67
2022/04/10 04:16:42;;;;;;;1.83;1.60;;;;;;;;;;5081489;28;20251;-67
2022/04/10 04:19:09;;;;;;;2.33;1.60;;;;;;;;;;5068402;28;20236;-67
2022/04/10 04:21:37;;;;;;;3.27;1.73;;;;;;;;;;5038259;28;20213;-67
2022/04/10 04:24:04;;;;;;;2.37;1.40;;;;;;;;;;5064529;28;20647;-68
2022/04/10 04:26:31;;;;;;;3.40;1.50;;;;;;;;;;5084052;28;20197;-67
2022/04/10 04:29:04;;;;;;;2.20;2.00;;;;;;;;;;5088225;28;20221;-68
2022/04/10 04:31:31;;;;;;;2.23;1.97;;;;;;;;;;5074362;28;20189;-67
2022/04/10 04:33:58;;;;;;;2.43;1.30;;;;;;;;;;5050402;28;20583;-67
2022/04/10 04:36:25;;;;;;;1.90;1.70;;;;;;;;;;5064253;28;20351;-68
2022/04/10 04:38:53;;;;;;;2.00;1.53;;;;;;;;;;5072590;28;20216;-68
2022/04/10 04:41:21;;;;;;;2.13;1.70;;;;;;;;;;5070986;28;20201;-69
2022/04/10 04:43:51;;;;;;;2.27;1.37;;;;;;;;;;5064180;28;20197;-66
2022/04/10 04:46:18;;;;;;;3.53;1.70;;;;;;;;;;5067929;28;20243;-68
2022/04/10 04:48:45;;;;;;;2.13;1.43;;;;;;;;;;5063666;28;20212;-67
2022/04/10 04:51:15;;;;;;;1.37;1.27;;;;;;;;;;5070128;28;20190;-67
2022/04/10 04:53:43;;;;;;;2.10;1.70;;;;;;;;;;5062475;28;20216;-67
2022/04/10 04:56:10;;;;;;;2.43;1.50;;;;;;;;;;5072015;28;20201;-67
2022/04/10 04:58:37;;;;;;;2.43;1.50;;;;;;;;;;5041052;28;20367;-67
2022/04/10 05:01:04;;;;;;;1.90;1.40;;;;;;;;;;5062876;28;20217;-68
2022/04/10 05:03:32;;;;;;;2.40;1.50;;;;;;;;;;5062064;28;20225;-68
2022/04/10 05:05:59;;;;;;;2.13;1.50;;;;;;;;;;5065986;28;20280;-66
2022/04/10 05:08:26;;;;;;;1.67;1.57;;;;;;;;;;5065341;28;20725;-67
2022/04/10 05:10:53;;;;;;;1.77;1.53;;;;;;;;;;5064955;28;20288;-66
2022/04/10 05:13:21;;;;;;;4.20;2.27;;;;;;;;;;5058568;28;20216;-66
2022/04/10 05:15:49;;;;;;;1.70;1.60;;;;;;;;;;5054192;28;20194;-66
2022/04/10 05:18:17;;;;;;;2.03;1.47;;;;;;;;;;5065334;28;20222;-66
2022/04/10 05:20:45;;;;;;;3.80;1.90;;;;;;;;;;5064113;28;20293;-67
2022/04/10 05:23:16;;;;;;;1.60;1.40;;;;;;;;;;5063099;28;20276;-67
2022/04/10 05:25:47;;;;;;;2.70;1.80;;;;;;;;;;5058736;28;20292;-66
2022/04/10 05:28:16;;;;;;;2.00;1.80;;;;;;;;;;5048309;28;20539;-67
2022/04/10 05:30:47;;;;;;;2.07;1.73;;;;;;;;;;5064987;28;20220;-66
2022/04/10 05:33:16;;;;;;;1.93;1.37;;;;;;;;;;5064005;28;20201;-67
2022/04/10 05:35:44;;;;;;;2.83;1.93;;;;;;;;;;5041302;28;20292;-68
2022/04/10 05:38:11;;;;;;;2.13;1.50;;;;;;;;;;5064337;28;20216;-68
2022/04/10 05:40:42;;;;;;;1.97;1.63;;;;;;;;;;5046785;28;20206;-67
2022/04/10 05:43:12;;;;;;;1.50;1.40;;;;;;;;;;5063550;28;20228;-66
2022/04/10 05:45:39;;;;;;;1.93;1.70;;;;;;;;;;5062493;28;20236;-66
2022/04/10 05:48:07;;;;;;;2.57;2.37;;;;;;;;;;5061472;28;20217;-66
2022/04/10 05:50:34;;;;;;;3.47;1.73;;;;;;;;;;5063265;28;20883;-68
2022/04/10 05:53:02;;;;;;;4.37;1.80;;;;;;;;;;5064450;28;20186;-67
2022/04/10 05:55:29;;;;;;;2.17;1.67;;;;;;;;;;5063458;28;20194;-66
2022/04/10 05:57:57;;;;;;;2.93;1.73;;;;;;;;;;5064076;28;20308;-66
2022/04/10 06:00:24;;;;;;;2.70;2.10;;;;;;;;;;5041749;28;20209;-67
2022/04/10 06:02:52;;;;;;;2.10;1.80;;;;;;;;;;5063383;28;20391;-68
2022/04/10 06:05:20;;;;;;;2.77;2.43;;;;;;;;;;5064059;28;20182;-67
2022/04/10 06:07:47;;;;;;;3.20;1.80;;;;;;;;;;5067138;28;20458;-66
2022/04/10 06:10:15;;;;;;;2.47;1.93;;;;;;;;;;5068446;28;20579;-66
2022/04/10 06:12:42;;;;;;;2.80;1.87;;;;;;;;;;5064268;28;20572;-66
2022/04/10 06:15:10;;;;;;;2.57;2.03;;;;;;;;;;5033233;28;20205;-66
2022/04/10 06:17:37;;;;;;;2.30;1.80;;;;;;;;;;5054199;28;20233;-66
2022/04/10 06:20:05;;;;;;;2.73;1.83;;;;;;;;;;5049497;28;20651;-66
2022/04/10 06:22:32;;;;;;;2.63;2.23;;;;;;;;;;5066316;28;20186;-67
2022/04/10 06:24:59;;;;;;;3.07;1.97;;;;;;;;;;5064639;28;20230;-68
2022/04/10 06:27:27;;;;;;;3.20;1.77;;;;;;;;;;5066823;28;20227;-65
2022/04/10 06:29:54;;;;;;;3.63;2.20;;;;;;;;;;5067415;28;20260;-65
2022/04/10 06:32:21;;;;;;;5.57;2.13;;;;;;;;;;5068128;28;20198;-66
2022/04/10 06:34:48;;;;;;;3.67;2.03;;;;;;;;;;5059612;28;20511;-67
2022/04/10 06:37:15;;;;;;;2.60;2.00;;;;;;;;;;5063699;28;20327;-67
2022/04/10 06:39:43;;;;;;;2.40;1.80;;;;;;;;;;5063287;28;20259;-67
2022/04/10 06:42:10;;;;;;;2.73;1.70;;;;;;;;;;5067001;28;20198;-67
2022/04/10 06:44:37;;;;;;;3.90;2.20;;;;;;;;;;5061039;28;20247;-66
2022/04/10 06:47:05;;;;;;;2.93;2.13;;;;;;;;;;5067291;28;20259;-68
2022/04/10 06:49:32;;;;;;;3.10;1.90;;;;;;;;;;5045202;28;20213;-68
2022/04/10 06:52:00;;;;;;;2.80;2.60;;;;;;;;;;5045837;28;20206;-69
2022/04/10 06:54:27;;;;;;;2.67;2.00;;;;;;;;;;5065153;28;20544;-69
2022/04/10 06:56:54;;;;;;;3.03;2.00;;;;;;;;;;5067969;28;20198;-66
2022/04/10 06:59:21;;;;;;;2.47;2.27;;;;;;;;;;5068025;28;20876;-66
2022/04/10 07:01:48;;;;;;;2.70;1.90;;;;;;;;;;5062866;28;20198;-66
2022/04/10 07:04:15;;;;;;;2.00;1.80;;;;;;;;;;5049525;28;20225;-66
2022/04/10 07:06:46;;;;;;;2.13;1.63;;;;;;;;;;5049959;28;20240;-67
2022/04/10 07:09:14;;;;;;;2.63;2.10;;;;;;;;;;5048411;28;20213;-66
2022/04/10 07:11:42;;;;;;;3.40;2.13;;;;;;;;;;5042558;28;20199;-66
2022/04/10 07:14:09;;;;;;;1.53;1.43;;;;;;;;;;5048619;28;20207;-66
2022/04/10 07:16:36;;;;;;;3.67;1.90;;;;;;;;;;5058905;28;20265;-66
2022/04/10 07:19:03;;;;;;;2.00;1.80;;;;;;;;;;5046824;28;20229;-66
2022/04/10 07:24:16;;;;;;;1.47;1.37;;;;;;;;;;5042660;28;20284;-70
2022/04/10 07:26:43;;;;;;;2.70;1.97;;;;;;;;;;5048509;28;20208;-68
2022/04/10 07:29:12;;;;;;;2.40;1.37;;;;;;;;;;5046985;28;20799;-67
2022/04/10 07:31:40;;;;;;;1.70;1.57;;;;;;;;;;5046068;28;20190;-67
2022/04/10 07:34:07;;;;;;;2.07;1.83;;;;;;;;;;5047073;28;20236;-67
2022/04/10 07:36:35;;;;;;;1.57;1.43;;;;;;;;;;5045231;28;20264;-69
2022/04/10 07:39:02;;;;;;;2.30;1.70;;;;;;;;;;5046255;28;20222;-69
2022/04/10 07:41:30;;;;;;;1.67;1.47;;;;;;;;;;5043106;28;20461;-67
2022/04/10 07:43:57;;;;;;;2.50;1.83;;;;;;;;;;5043435;28;20241;-69
2022/04/10 07:49:10;;;;;;;1.80;1.57;;;;;;;;;;5040529;28;20207;-66
2022/04/10 07:51:37;;;;;;;2.87;2.17;;;;;;;;;;5044405;28;20198;-68
2022/04/10 07:54:05;;;;;;;2.07;1.60;;;;;;;;;;5047099;28;20194;-69
2022/04/10 07:56:32;;;;;;;101.27;22.33;;;;;;;;;;5047505;28;20635;-69
2022/04/10 07:58:59;;;;;;;279.67;50.60;;;;;;;;;;5046802;28;20224;-70
2022/04/10 08:01:26;;;;;;;188.47;36.87;;;;;;;;;;5051044;28;20289;-67
2022/04/10 08:03:54;;;;;;;146.07;30.03;;;;;;;;;;5055405;28;20695;-67
2022/04/10 08:06:21;;;;;;;118.37;23.33;;;;;;;;;;5058942;28;20283;-68
2022/04/10 08:08:48;;;;;;;84.90;18.67;;;;;;;;;;5059428;28;20231;-67
2022/04/10 08:11:18;;;;;;;78.67;16.20;;;;;;;;;;5064552;28;20701;-67
2022/04/10 08:13:47;;;;;;;60.93;14.17;;;;;;;;;;5059198;28;20197;-67
2022/04/10 08:16:16;;;;;;;43.03;11.67;;;;;;;;;;5064790;28;20284;-66
2022/04/10 08:18:43;;;;;;;49.80;11.37;;;;;;;;;;5057431;28;20233;-66
2022/04/10 08:21:11;;;;;;;32.40;9.70;;;;;;;;;;5065230;28;20209;-69
2022/04/10 08:23:38;;;;;;;31.07;8.30;;;;;;;;;;5042463;28;20244;-68
2022/04/10 08:26:05;;;;;;;27.93;7.87;;;;;;;;;;5065539;28;20213;-66
2022/04/10 08:28:36;;;;;;;17.57;6.43;;;;;;;;;;5063685;28;20247;-66
2022/04/10 08:31:10;;;;;;;20.90;6.50;;;;;;;;;;5045039;28;20205;-66
2022/04/10 08:33:40;;;;;;;17.93;6.00;;;;;;;;;;5061688;28;20287;-65
2022/04/10 08:36:08;;;;;;;13.23;5.33;;;;;;;;;;5034667;28;20565;-66
2022/04/10 08:38:35;;;;;;;13.63;4.50;;;;;;;;;;5064493;28;20554;-65
2022/04/10 08:41:03;;;;;;;12.50;4.60;;;;;;;;;;5065742;28;20614;-68
2022/04/10 08:43:31;;;;;;;13.73;4.00;;;;;;;;;;5062039;28;20209;-69
2022/04/10 08:45:58;;;;;;;13.00;3.70;;;;;;;;;;5065063;28;20193;-68
2022/04/10 08:48:26;;;;;;;10.73;3.70;;;;;;;;;;5060842;28;20643;-68
2022/04/10 08:50:55;;;;;;;10.23;4.17;;;;;;;;;;5065078;28;20202;-68
2022/04/10 08:53:24;;;;;;;7.47;3.70;;;;;;;;;;5063222;28;20199;-69
2022/04/10 08:55:51;;;;;;;6.13;2.20;;;;;;;;;;5063921;28;20209;-67
2022/04/10 08:58:20;;;;;;;6.67;2.97;;;;;;;;;;5064166;28;20232;-66
2022/04/10 09:00:47;;;;;;;7.50;2.57;;;;;;;;;;5064647;28;20213;-65
2022/04/10 09:03:15;;;;;;;5.70;3.23;;;;;;;;;;5063261;28;20247;-67
2022/04/10 09:05:45;;;;;;;6.33;2.23;;;;;;;;;;5061786;28;20221;-66
2022/04/10 09:08:18;;;;;;;6.93;2.53;;;;;;;;;;5064693;28;20201;-66
2022/04/10 09:10:56;;;;;;;6.37;2.17;;;;;;;;;;5056736;28;20266;-66
2022/04/10 09:13:32;;;;;;;5.93;2.23;;;;;;;;;;5057535;28;20225;-66
2022/04/10 09:16:07;;;;;;;5.40;1.93;;;;;;;;;;5054941;28;20670;-67
2022/04/10 09:18:46;;;;;;;4.83;1.90;;;;;;;;;;5055715;28;20218;-66
2022/04/10 09:21:14;;;;;;;4.53;1.80;;;;;;;;;;5063840;28;20758;-68
2022/04/10 09:23:41;;;;;;;5.00;2.13;;;;;;;;;;5055339;28;20665;-67
2022/04/10 09:26:08;;;;;;;5.60;2.10;;;;;;;;;;5055997;28;20259;-66
2022/04/10 09:28:46;;;;;;;5.60;2.20;;;;;;;;;;5063732;28;20642;-64
2022/04/10 09:31:33;;;;;;;4.57;2.07;;;;;;;;;;5062557;28;20196;-67
2022/04/10 09:34:01;;;;;;;7.17;2.17;;;;;;;;;;5060018;28;20287;-66
2022/04/10 09:36:35;;;;;;;5.10;1.73;;;;;;;;;;5057522;28;20659;-67
2022/04/10 09:39:07;;;;;;;2.33;1.27;;;;;;;;;;5064187;28;20963;-66
2022/04/10 09:41:34;;;;;;;4.93;1.93;;;;;;;;;;5062167;28;20194;-67
2022/04/10 09:44:13;;;;;;;3.57;1.50;;;;;;;;;;5063682;28;21186;-68
2022/04/10 09:46:41;;;;;;;6.30;1.87;;;;;;;;;;5058101;28;20832;-66
2022/04/10 09:49:13;;;;;;;3.57;1.40;;;;;;;;;;5061655;28;20213;-65
2022/04/10 09:52:19;;;;;;;3.23;1.70;;;;;;;;;;5061570;28;20539;-67
2022/04/10 09:54:46;;;;;;;5.07;1.73;;;;;;;;;;5009257;28;20215;-65
2022/04/10 09:57:15;;;;;;;5.07;1.90;;;;;;;;;;4991557;28;20198;-65
2022/04/10 09:59:43;;;;;;;5.20;2.10;;;;;;;;;;5025847;28;20237;-65
2022/04/10 10:02:11;;;;;;;2.43;1.23;;;;;;;;;;5051213;28;20245;-68
2022/04/10 10:04:39;;;;;;;3.43;1.43;;;;;;;;;;5059770;28;20206;-68
2022/04/10 10:07:10;;;;;;;4.90;1.50;;;;;;;;;;5064401;28;20209;-67
2022/04/10 10:09:38;;;;;;;2.60;1.30;;;;;;;;;;5061190;28;20189;-67
2022/04/10 10:12:08;;;;;;;2.97;1.13;;;;;;;;;;5059226;28;20217;-68
2022/04/10 10:14:40;;;;;;;3.43;1.33;;;;;;;;;;5059997;28;20182;-68
2022/04/10 10:17:11;;;;;;;1.67;1.20;;;;;;;;;;5062205;28;20201;-67
2022/04/10 10:19:44;;;;;;;1.80;1.30;;;;;;;;;;5057611;28;20206;-67
2022/04/10 10:22:12;;;;;;;4.23;1.33;;;;;;;;;;5060075;28;20213;-65
2022/04/10 10:24:46;;;;;;;7.23;1.90;;;;;;;;;;5059702;28;20225;-66
2022/04/10 10:27:16;;;;;;;5.10;1.67;;;;;;;;;;5042665;28;20190;-66
2022/04/10 10:29:54;;;;;;;4.50;1.53;;;;;;;;;;5055048;28;20225;-67
2022/04/10 10:32:36;;;;;;;5.23;1.40;;;;;;;;;;5043531;28;20295;-67
2022/04/10 10:35:04;;;;;;;3.47;1.87;;;;;;;;;;5056887;28;20939;-66
2022/04/10 10:37:53;;;;;;;4.33;1.23;;;;;;;;;;5055425;28;20213;-65
2022/04/10 10:40:21;;;;;;;2.70;1.03;;;;;;;;;;5062353;28;20210;-65
2022/04/10 10:42:49;;;;;;;6.00;1.30;;;;;;;;;;5055393;28;20221;-64
2022/04/10 10:45:32;;;;;;;8.87;1.77;;;;;;;;;;5063152;28;20659;-63
2022/04/10 10:48:23;;;;;;;4.17;1.17;;;;;;;;;;5060119;28;20716;-65
2022/04/10 10:50:51;;;;;;;5.13;1.77;;;;;;;;;;5063270;28;20456;-67
2022/04/10 10:53:38;;;;;;;7.93;1.63;;;;;;;;;;5048294;28;20212;-67
2022/04/10 10:56:06;;;;;;;3.07;1.27;;;;;;;;;;5064821;28;20197;-67
2022/04/10 10:58:33;;;;;;;3.77;0.93;;;;;;;;;;5048890;28;20194;-67
2022/04/10 11:01:04;;;;;;;2.57;1.40;;;;;;;;;;5063290;28;20270;-67
2022/04/10 11:03:31;;;;;;;1.80;1.00;;;;;;;;;;5045427;28;20279;-67
2022/04/10 11:06:06;;;;;;;2.17;1.40;;;;;;;;;;5064855;28;20530;-68
2022/04/10 11:08:39;;;;;;;2.13;0.97;;;;;;;;;;5057956;28;20202;-68
2022/04/10 11:11:07;;;;;;;3.37;1.37;;;;;;;;;;5064737;28;20246;-68
2022/04/10 11:13:38;;;;;;;2.57;0.77;;;;;;;;;;5061941;28;20611;-69
2022/04/10 11:16:13;;;;;;;1.43;0.80;;;;;;;;;;5047451;28;20589;-67
2022/04/10 11:18:44;;;;;;;1.83;1.03;;;;;;;;;;5057779;28;20200;-67
2022/04/10 11:21:14;;;;;;;2.07;1.13;;;;;;;;;;5064803;28;20210;-69
2022/04/10 11:23:52;;;;;;;2.57;1.43;;;;;;;;;;5057632;28;20198;-69
2022/04/10 11:26:20;;;;;;;5.13;1.00;;;;;;;;;;5073247;28;20205;-66
2022/04/10 11:28:58;;;;;;;3.70;1.10;;;;;;;;;;5072375;28;20260;-66
2022/04/10 11:31:47;;;;;;;4.30;1.30;;;;;;;;;;5070100;28;20224;-66
2022/04/10 11:34:19;;;;;;;3.87;1.10;;;;;;;;;;5058977;28;20186;-66
2022/04/10 11:36:50;;;;;;;2.90;0.90;;;;;;;;;;5068687;28;20225;-68
2022/04/10 11:39:17;;;;;;;2.30;0.97;;;;;;;;;;5068381;28;20209;-68
2022/04/10 11:41:45;;;;;;;1.77;0.97;;;;;;;;;;5073970;28;20344;-65
2022/04/10 11:44:13;;;;;;;2.57;1.10;;;;;;;;;;5068120;28;20681;-66
2022/04/10 11:46:40;;;;;;;1.70;0.80;;;;;;;;;;5027673;28;20665;-68
2022/04/10 11:49:08;;;;;;;2.20;0.90;;;;;;;;;;5044613;28;20659;-68
2022/04/10 11:51:49;;;;;;;1.90;1.00;;;;;;;;;;5061755;28;20220;-66
2022/04/10 11:54:26;;;;;;;1.33;0.83;;;;;;;;;;5047169;28;20202;-67
2022/04/10 11:56:53;;;;;;;2.73;0.60;;;;;;;;;;5065594;28;20189;-64
2022/04/10 11:59:21;;;;;;;1.30;0.60;;;;;;;;;;5067826;28;20232;-66
2022/04/10 12:01:49;;;;;;;1.50;1.23;;;;;;;;;;5060945;28;20205;-69
2022/04/10 12:04:20;;;;;;;1.87;0.60;;;;;;;;;;5066390;28;20233;-70
2022/04/10 12:06:47;;;;;;;2.87;0.83;;;;;;;;;;5063263;28;20194;-65
2022/04/10 12:09:14;;;;;;;1.27;1.00;;;;;;;;;;5045561;28;20194;-65
2022/04/10 12:11:42;;;;;;;2.07;0.87;;;;;;;;;;5043654;28;20924;-69
2022/04/10 12:14:24;;;;;;;1.57;0.60;;;;;;;;;;5057968;28;20209;-69
2022/04/10 12:16:52;;;;;;;1.27;0.70;;;;;;;;;;5040151;28;20639;-66
2022/04/10 12:19:30;;;;;;;3.13;1.10;;;;;;;;;;5067990;28;20218;-66
2022/04/10 12:21:57;;;;;;;1.70;0.60;;;;;;;;;;5067085;28;20194;-65
2022/04/10 12:24:24;;;;;;;2.87;0.73;;;;;;;;;;5048964;28;20279;-65
2022/04/10 12:26:51;;;;;;;2.00;1.03;;;;;;;;;;5070349;28;20432;-65
2022/04/10 12:29:19;;;;;;;2.30;1.30;;;;;;;;;;5067917;28;20190;-65
2022/04/10 12:31:48;;;;;;;1.93;0.70;;;;;;;;;;5064145;28;20186;-68
2022/04/10 12:34:16;;;;;;;1.20;0.60;;;;;;;;;;5066535;28;20730;-69
2022/04/10 12:36:50;;;;;;;2.23;0.80;;;;;;;;;;5044792;28;20206;-65
2022/04/10 12:39:30;;;;;;;1.30;0.60;;;;;;;;;;5064592;28;20689;-65
2022/04/10 12:42:26;;;;;;;1.80;1.00;;;;;;;;;;5062245;28;20197;-70
2022/04/10 12:44:55;;;;;;;0.80;0.60;;;;;;;;;;5052880;28;20216;-68
2022/04/10 12:47:40;;;;;;;0.80;0.70;;;;;;;;;;5066657;28;20216;-69
2022/04/10 12:50:08;;;;;;;1.70;0.80;;;;;;;;;;5060789;28;20508;-68
2022/04/10 12:52:37;;;;;;;0.90;0.70;;;;;;;;;;5066275;28;20247;-70
2022/04/10 12:55:14;;;;;;;1.10;0.60;;;;;;;;;;5066581;28;20197;-68
2022/04/10 12:57:43;;;;;;;3.47;0.80;;;;;;;;;;5062669;28;20267;-69
2022/04/10 13:00:23;;;;;;;1.47;0.50;;;;;;;;;;5053572;28;20260;-68
2022/04/10 13:02:51;;;;;;;1.23;0.50;;;;;;;;;;5063858;28;20237;-69
2022/04/10 13:05:18;;;;;;;0.87;0.53;;;;;;;;;;5069321;28;20412;-69
2022/04/10 13:07:55;;;;;;;1.33;0.70;;;;;;;;;;5064959;28;20686;-69
2022/04/10 13:10:22;;;;;;;0.87;0.50;;;;;;;;;;5067570;28;20498;-64
2022/04/10 13:12:49;;;;;;;2.00;0.70;;;;;;;;;;5062759;28;20209;-65
2022/04/10 13:15:34;;;;;;;1.13;0.50;;;;;;;;;;5047857;28;20198;-65
2022/04/10 13:18:01;;;;;;;2.17;0.90;;;;;;;;;;5065135;28;20185;-66
2022/04/10 13:20:30;;;;;;;1.23;0.67;;;;;;;;;;5065286;28;20255;-69
2022/04/10 13:22:57;;;;;;;1.20;0.70;;;;;;;;;;5066359;28;20212;-69
2022/04/10 13:25:25;;;;;;;1.13;0.57;;;;;;;;;;5056877;28;20635;-70
2022/04/10 13:27:53;;;;;;;2.00;0.50;;;;;;;;;;5063121;28;20751;-70
2022/04/10 13:30:20;;;;;;;1.30;0.50;;;;;;;;;;5065653;28;20204;-66
2022/04/10 13:32:47;;;;;;;0.90;0.50;;;;;;;;;;5065536;28;20209;-66
2022/04/10 13:35:15;;;;;;;0.97;0.60;;;;;;;;;;5067963;28;20210;-65
2022/04/10 13:37:43;;;;;;;1.77;0.90;;;;;;;;;;5061236;28;20217;-66
2022/04/10 13:40:12;;;;;;;1.30;0.63;;;;;;;;;;5069029;28;20201;-65
2022/04/10 13:42:46;;;;;;;1.67;0.80;;;;;;;;;;5046356;28;20206;-66
2022/04/10 13:45:17;;;;;;;1.47;0.70;;;;;;;;;;5047615;28;20197;-68
2022/04/10 13:47:47;;;;;;;1.73;0.80;;;;;;;;;;5056655;28;20621;-69
2022/04/10 13:50:18;;;;;;;1.03;0.90;;;;;;;;;;5066856;28;20669;-68
2022/04/10 13:52:48;;;;;;;1.13;0.90;;;;;;;;;;5066365;28;20197;-68
2022/04/10 13:55:18;;;;;;;1.00;0.67;;;;;;;;;;5063935;28;20216;-65
2022/04/10 13:57:48;;;;;;;1.43;0.80;;;;;;;;;;5063657;28;20194;-65
2022/04/10 14:00:19;;;;;;;1.53;0.70;;;;;;;;;;5058448;28;20256;-66
2022/04/10 14:02:51;;;;;;;1.30;0.80;;;;;;;;;;5061884;28;20742;-66
2022/04/10 14:05:21;;;;;;;1.87;0.90;;;;;;;;;;5065356;28;20209;-69
2022/04/10 14:07:51;;;;;;;1.97;0.80;;;;;;;;;;5062725;28;20232;-69
2022/04/10 14:10:21;;;;;;;0.80;0.60;;;;;;;;;;5064920;28;20181;-66
2022/04/10 14:12:54;;;;;;;0.90;0.60;;;;;;;;;;5062255;28;20289;-65
2022/04/10 14:15:24;;;;;;;0.80;0.47;;;;;;;;;;5032285;28;20202;-70
2022/04/10 14:17:57;;;;;;;0.57;0.30;;;;;;;;;;5059461;28;20190;-68
2022/04/10 14:20:30;;;;;;;1.13;0.60;;;;;;;;;;5066038;28;20213;-69
2022/04/10 14:23:01;;;;;;;1.20;0.70;;;;;;;;;;5065319;28;20178;-69
2022/04/10 14:25:32;;;;;;;0.43;0.43;;;;;;;;;;5060252;28;20218;-70
2022/04/10 14:28:02;;;;;;;0.50;0.50;;;;;;;;;;5050578;28;20206;-69
2022/04/10 14:30:35;;;;;;;0.67;0.50;;;;;;;;;;5069518;28;20497;-69
2022/04/10 14:33:04;;;;;;;0.80;0.70;;;;;;;;;;5067400;28;20657;-69
2022/04/10 14:35:34;;;;;;;0.90;0.70;;;;;;;;;;5050235;28;20680;-66
2022/04/10 14:38:01;;;;;;;0.87;0.60;;;;;;;;;;5063566;28;20279;-67
2022/04/10 14:40:28;;;;;;;1.00;0.73;;;;;;;;;;5067549;28;20205;-69
2022/04/10 14:42:55;;;;;;;0.50;0.50;;;;;;;;;;5068452;28;20243;-69
2022/04/10 14:45:22;;;;;;;0.73;0.60;;;;;;;;;;5051933;28;20206;-70
2022/04/10 14:47:55;;;;;;;0.83;0.63;;;;;;;;;;5055245;28;20952;-69
2022/04/10 14:50:25;;;;;;;1.27;0.67;;;;;;;;;;5070862;28;20196;-65
2022/04/10 14:52:58;;;;;;;1.30;0.60;;;;;;;;;;5068821;28;20657;-65
2022/04/10 14:55:30;;;;;;;0.70;0.50;;;;;;;;;;5049292;28;20213;-66
2022/04/10 14:58:01;;;;;;;1.17;0.60;;;;;;;;;;5069009;28;20193;-65